createdAt,value
2018-02-20T01:17:06.886Z,-1.52
2018-02-20T01:18:04.355Z,-1.43
2018-02-20T02:07:01.381Z,-2.00
2018-02-20T02:08:02.725Z,-2.00
2018-02-20T03:12:00.360Z,-2.35
2018-02-20T03:13:00.433Z,-2.38
2018-02-20T03:13:59.924Z,-2.38
2018-02-20T05:01:59.518Z,-3.55
2018-02-20T05:03:00.203Z,-3.60
2018-02-20T07:20:56.170Z,-2.59
2018-02-20T07:21:52.662Z,-2.54
2018-02-20T07:22:52.930Z,-2.41
2018-02-20T07:23:52.668Z,-2.41
2018-02-20T07:24:52.702Z,-2.26
2018-02-20T08:21:51.636Z,4.54
2018-02-20T09:49:50.548Z,7.80
2018-02-20T10:26:49.063Z,9.72
2018-02-20T10:27:49.098Z,10.02
2018-02-20T10:28:49.035Z,9.73
2018-02-20T10:29:49.099Z,9.36
2018-02-20T10:30:49.020Z,9.26
2018-02-20T10:31:49.120Z,9.30
2018-02-20T10:33:49.021Z,9.15
2018-02-20T10:34:49.380Z,9.73
2018-02-20T10:35:49.165Z,9.45
2018-02-20T10:36:48.932Z,9.42
2018-02-20T10:37:49.033Z,9.14
2018-02-20T10:39:48.952Z,9.47
2018-02-20T10:40:48.977Z,9.90
2018-02-20T10:41:48.983Z,9.69
2018-02-20T10:42:48.893Z,9.54
2018-02-20T10:43:49.031Z,9.37
2018-02-20T10:45:48.818Z,10.01
2018-02-20T10:46:48.920Z,10.10
2018-02-20T10:47:48.942Z,9.83
2018-02-20T10:48:48.776Z,10.17
2018-02-20T10:49:48.807Z,10.28
2018-02-20T10:50:49.057Z,10.54
2018-02-20T10:58:48.780Z,9.14
2018-02-20T10:59:48.794Z,8.77
2018-02-20T11:00:48.726Z,9.57
2018-02-20T11:01:48.727Z,10.01
2018-02-20T11:02:48.968Z,10.23
2018-02-20T11:03:48.691Z,9.72
2018-02-20T11:04:48.629Z,9.30
2018-02-20T11:05:48.939Z,9.69
2018-02-20T11:06:48.665Z,9.45
2018-02-20T11:07:48.646Z,9.78
2018-02-20T11:08:48.986Z,9.69
2018-02-20T11:09:48.570Z,10.14
2018-02-20T11:10:48.788Z,9.96
2018-02-20T11:11:48.906Z,10.41
2018-02-20T11:12:48.585Z,10.43
2018-02-20T11:13:48.535Z,10.60
2018-02-20T11:14:48.767Z,10.85
2018-02-20T11:15:48.514Z,10.86
2018-02-20T11:16:51.894Z,10.94
2018-02-20T11:17:49.935Z,11.15
2018-02-20T11:18:48.574Z,11.08
2018-02-20T11:19:48.541Z,11.09
2018-02-20T11:20:48.820Z,10.91
2018-02-20T11:21:48.522Z,9.93
2018-02-20T11:22:48.686Z,9.62
2018-02-20T11:23:48.702Z,9.62
2018-02-20T11:24:48.403Z,10.12
2018-02-20T11:25:48.385Z,10.65
2018-02-20T11:26:48.726Z,10.80
2018-02-20T11:27:48.445Z,11.16
2018-02-20T11:28:48.306Z,11.37
2018-02-20T11:29:48.308Z,11.20
2018-02-20T11:30:48.284Z,11.30
2018-02-20T11:31:48.444Z,11.15
2018-02-20T11:32:48.571Z,10.60
2018-02-20T11:33:48.252Z,10.82
2018-02-20T11:34:48.253Z,10.79
2018-02-20T11:35:48.230Z,10.62
2018-02-20T11:36:48.220Z,9.96
2018-02-20T11:37:48.212Z,9.54
2018-02-20T11:38:48.501Z,10.10
2018-02-20T11:39:48.201Z,10.76
2018-02-20T11:40:48.386Z,10.93
2018-02-20T11:41:48.168Z,11.18
2018-02-20T11:42:48.155Z,11.01
2018-02-20T11:43:48.148Z,11.15
2018-02-20T11:44:48.431Z,11.30
2018-02-20T11:45:48.120Z,11.20
2018-02-20T11:46:48.114Z,10.10
2018-02-20T11:47:48.267Z,9.78
2018-02-20T11:48:48.107Z,9.57
2018-02-20T11:49:48.158Z,9.90
2018-02-20T11:50:48.091Z,10.27
2018-02-20T11:51:48.356Z,10.65
2018-02-20T11:52:48.046Z,10.17
2018-02-20T11:53:48.034Z,10.68
2018-02-20T11:54:48.029Z,10.18
2018-02-20T11:55:48.181Z,10.36
2018-02-20T11:56:48.001Z,9.72
2018-02-20T11:57:47.995Z,9.81
2018-02-20T11:58:48.278Z,10.20
2018-02-20T11:59:47.979Z,10.68
2018-02-20T12:00:47.967Z,10.80
2018-02-20T12:01:48.038Z,10.78
2018-02-20T12:02:48.029Z,11.08
2018-02-20T12:03:48.022Z,10.78
2018-02-20T12:04:48.016Z,11.04
2018-02-20T12:05:48.298Z,11.18
2018-02-20T12:06:47.987Z,11.61
2018-02-20T12:07:47.880Z,11.27
2018-02-20T12:08:47.879Z,10.97
2018-02-20T12:09:47.860Z,10.75
2018-02-20T12:10:47.857Z,10.80
2018-02-20T12:11:47.890Z,10.80
2018-02-20T12:12:48.130Z,10.86
2018-02-20T12:13:47.822Z,11.04
2018-02-20T12:14:47.805Z,11.41
2018-02-20T12:15:47.804Z,11.04
2018-02-20T12:16:47.837Z,11.33
2018-02-20T12:17:47.789Z,11.08
2018-02-20T12:18:47.778Z,11.12
2018-02-20T12:19:48.051Z,11.36
2018-02-20T12:20:47.740Z,11.00
2018-02-20T12:21:47.739Z,11.00
2018-02-20T12:22:47.924Z,11.19
2018-02-20T12:23:49.739Z,11.33
2018-02-20T12:24:48.103Z,11.09
2018-02-20T12:25:48.403Z,11.16
2018-02-20T12:26:48.644Z,11.33
2018-02-20T12:27:47.747Z,11.23
2018-02-20T12:28:48.135Z,11.11
2018-02-20T12:29:47.658Z,10.60
2018-02-20T12:30:47.635Z,10.94
2018-02-20T12:31:47.747Z,11.11
2018-02-20T12:32:47.615Z,11.09
2018-02-20T12:33:47.906Z,10.86
2018-02-20T12:34:47.598Z,10.65
2018-02-20T12:35:47.608Z,10.72
2018-02-20T12:36:47.718Z,10.52
2018-02-20T12:37:47.611Z,10.46
2018-02-20T12:38:48.248Z,10.49
2018-02-20T12:39:47.844Z,10.27
2018-02-20T12:40:47.533Z,10.52
2018-02-20T12:41:47.532Z,10.35
2018-02-20T12:42:47.534Z,10.98
2018-02-20T12:43:47.551Z,11.23
2018-02-20T12:44:47.490Z,11.40
2018-02-20T12:45:47.781Z,11.00
2018-02-20T12:46:47.472Z,10.82
2018-02-20T12:47:47.462Z,10.31
2018-02-20T12:48:47.458Z,10.78
2018-02-20T12:49:47.445Z,10.48
2018-02-20T12:50:47.432Z,10.60
2018-02-20T12:51:47.717Z,10.17
2018-02-20T12:52:47.406Z,9.81
2018-02-20T12:53:47.408Z,9.98
2018-02-20T12:54:47.384Z,10.49
2018-02-20T12:55:47.373Z,10.67
2018-02-20T12:56:47.367Z,10.39
2018-02-20T12:57:47.656Z,10.05
2018-02-20T12:58:47.348Z,9.93
2018-02-20T12:59:47.452Z,9.94
2018-02-20T13:00:47.499Z,10.21
2018-02-20T13:01:47.431Z,10.10
2018-02-20T13:02:47.424Z,10.48
2018-02-20T13:03:47.699Z,10.82
2018-02-20T13:04:47.278Z,10.72
2018-02-20T13:05:47.272Z,10.49
2018-02-20T13:06:47.255Z,10.70
2018-02-20T13:07:47.246Z,10.62
2018-02-20T13:08:47.336Z,10.49
2018-02-20T13:09:47.631Z,10.42
2018-02-20T13:10:47.259Z,10.78
2018-02-20T13:11:47.322Z,10.85
2018-02-20T13:12:47.192Z,11.23
2018-02-20T13:13:47.252Z,11.09
2018-02-20T13:14:47.248Z,10.83
2018-02-20T13:15:47.478Z,10.75
2018-02-20T13:16:47.223Z,10.55
2018-02-20T13:17:47.137Z,9.73
2018-02-20T13:18:47.136Z,9.41
2018-02-20T13:19:47.259Z,8.90
2018-02-20T13:20:47.114Z,8.44
2018-02-20T13:21:47.094Z,9.11
2018-02-20T13:22:47.518Z,9.63
2018-02-20T13:23:47.083Z,9.67
2018-02-20T13:24:47.147Z,9.81
2018-02-20T13:25:47.213Z,10.24
2018-02-20T13:26:47.050Z,10.24
2018-02-20T13:27:47.121Z,10.14
2018-02-20T13:28:47.139Z,10.12
2018-02-20T13:29:47.515Z,10.26
2018-02-20T13:30:47.019Z,10.38
2018-02-20T13:31:47.057Z,10.14
2018-02-20T13:32:47.043Z,10.28
2018-02-20T13:33:47.029Z,10.23
2018-02-20T13:34:47.025Z,10.31
2018-02-20T13:35:46.938Z,10.46
2018-02-20T13:36:47.239Z,10.39
2018-02-20T13:37:46.915Z,10.43
2018-02-20T13:38:46.906Z,10.79
2018-02-20T13:39:46.894Z,10.73
2018-02-20T13:40:46.882Z,10.61
2018-02-20T13:41:46.874Z,10.45
2018-02-20T13:42:46.872Z,10.17
2018-02-20T13:43:47.153Z,10.39
2018-02-20T13:44:46.838Z,10.54
2018-02-20T13:45:46.826Z,10.24
2018-02-20T13:46:46.820Z,10.27
2018-02-20T13:47:46.807Z,10.31
2018-02-20T13:48:46.794Z,10.26
2018-02-20T13:49:46.783Z,9.93
2018-02-20T13:50:47.071Z,9.91
2018-02-20T13:51:46.808Z,9.75
2018-02-20T13:52:46.846Z,9.52
2018-02-20T13:53:46.738Z,9.54
2018-02-20T13:54:47.008Z,9.37
2018-02-20T13:55:46.884Z,9.50
2018-02-20T13:56:46.836Z,8.47
2018-02-20T13:57:47.169Z,8.06
2018-02-20T13:58:46.679Z,7.57
2018-02-20T13:59:46.670Z,7.25
2018-02-20T14:00:46.658Z,6.86
2018-02-20T14:01:46.649Z,6.67
2018-02-20T14:02:46.634Z,6.68
2018-02-20T14:03:46.620Z,7.13
2018-02-20T14:04:46.918Z,7.04
2018-02-20T14:05:46.605Z,6.96
2018-02-20T14:06:46.646Z,7.33
2018-02-20T14:07:46.568Z,7.54
2018-02-20T14:08:46.556Z,7.69
2018-02-20T14:09:46.608Z,8.01
2018-02-20T14:10:46.829Z,8.41
2018-02-20T14:11:46.518Z,8.74
2018-02-20T14:12:46.504Z,8.74
2018-02-20T14:13:46.753Z,9.03
2018-02-20T14:14:46.477Z,8.90
2018-02-20T14:15:46.481Z,9.03
2018-02-20T14:16:46.748Z,9.15
2018-02-20T14:17:46.440Z,9.54
2018-02-20T14:18:46.421Z,9.40
2018-02-20T14:19:46.412Z,8.86
2018-02-20T14:20:46.393Z,8.67
2018-02-20T14:21:46.379Z,8.92
2018-02-20T14:22:46.679Z,8.74
2018-02-20T14:23:46.352Z,8.90
2018-02-20T14:24:46.345Z,8.38
2018-02-20T14:25:46.329Z,8.41
2018-02-20T14:26:46.323Z,8.19
2018-02-20T14:27:46.318Z,8.41
2018-02-20T14:28:46.599Z,8.56
2018-02-20T14:29:46.274Z,8.37
2018-02-20T14:30:46.263Z,8.32
2018-02-20T14:31:46.248Z,8.17
2018-02-20T14:32:46.236Z,8.31
2018-02-20T14:33:46.553Z,8.09
2018-02-20T14:34:46.527Z,7.57
2018-02-20T14:35:46.265Z,7.66
2018-02-20T14:36:46.252Z,7.74
2018-02-20T14:37:46.243Z,7.49
2018-02-20T14:38:46.222Z,7.81
2018-02-20T14:39:46.139Z,7.94
2018-02-20T14:40:46.528Z,8.01
2018-02-20T14:41:46.244Z,8.23
2018-02-20T14:42:46.103Z,8.20
2018-02-20T14:43:46.087Z,8.31
2018-02-20T14:44:46.124Z,8.32
2018-02-20T14:45:46.144Z,8.17
2018-02-20T14:46:48.077Z,8.13
2018-02-20T14:47:46.269Z,8.09
2018-02-20T14:48:46.192Z,7.99
2018-02-20T14:49:46.294Z,7.91
2018-02-20T14:50:46.180Z,7.87
2018-02-20T14:51:45.980Z,7.98
2018-02-20T14:52:45.963Z,7.78
2018-02-20T14:53:46.259Z,7.62
2018-02-20T14:54:45.933Z,7.71
2018-02-20T14:55:45.920Z,7.68
2018-02-20T14:56:45.916Z,7.54
2018-02-20T14:57:45.892Z,7.36
2018-02-20T14:58:45.880Z,7.29
2018-02-20T14:59:45.871Z,7.10
2018-02-20T15:00:46.594Z,6.86
2018-02-20T15:01:46.008Z,6.88
2018-02-20T15:02:45.903Z,6.75
2018-02-20T15:03:47.232Z,6.46
2018-02-20T15:04:46.116Z,6.52
2018-02-20T15:05:45.780Z,6.63
2018-02-20T15:06:45.764Z,6.78
2018-02-20T15:07:46.092Z,7.00
2018-02-20T15:08:45.737Z,7.01
2018-02-20T15:09:45.770Z,7.15
2018-02-20T15:10:45.710Z,7.00
2018-02-20T15:11:45.698Z,7.00
2018-02-20T15:12:45.677Z,7.07
2018-02-20T15:13:45.670Z,7.19
2018-02-20T15:14:45.952Z,7.24
2018-02-20T15:15:45.651Z,7.03
2018-02-20T15:16:45.626Z,6.83
2018-02-20T15:17:45.603Z,6.60
2018-02-20T15:18:45.598Z,6.24
2018-02-20T15:19:45.576Z,5.97
2018-02-20T15:20:45.566Z,5.75
2018-02-20T15:21:45.848Z,5.65
2018-02-20T15:22:45.524Z,5.51
2018-02-20T15:24:45.529Z,5.37
2018-02-20T15:26:45.461Z,5.34
2018-02-20T15:27:45.445Z,5.32
2018-02-20T15:28:45.739Z,5.25
2018-02-20T15:29:45.414Z,5.21
2018-02-20T15:30:45.395Z,5.11
2018-02-20T15:31:45.487Z,5.04
2018-02-20T15:32:45.371Z,5.01
2018-02-20T15:33:45.346Z,4.97
2018-02-20T15:34:45.328Z,4.85
2018-02-20T15:35:45.612Z,4.78
2018-02-20T15:36:45.317Z,4.72
2018-02-20T15:37:45.278Z,4.72
2018-02-20T15:38:45.385Z,4.66
2018-02-20T15:39:45.367Z,4.63
2018-02-20T15:40:45.373Z,4.71
2018-02-20T15:41:45.514Z,4.71
2018-02-20T15:42:45.494Z,4.77
2018-02-20T15:43:45.219Z,4.94
2018-02-20T15:44:45.170Z,4.83
2018-02-20T15:45:45.137Z,4.91
2018-02-20T15:46:45.116Z,4.79
2018-02-20T15:47:45.401Z,4.79
2018-02-20T15:48:45.092Z,4.69
2018-02-20T15:49:45.068Z,4.71
2018-02-20T15:50:45.063Z,4.69
2018-02-20T15:51:45.132Z,4.60
2018-02-20T15:52:45.051Z,4.49
2018-02-20T15:53:45.284Z,4.57
2018-02-20T15:54:45.081Z,4.48
2018-02-20T15:55:45.054Z,4.53
2018-02-20T15:56:44.930Z,4.42
2018-02-20T15:59:45.300Z,4.12
2018-02-20T16:00:44.984Z,4.17
2018-02-20T16:01:44.991Z,4.10
2018-02-20T16:02:44.817Z,4.12
2018-02-20T16:03:44.847Z,4.09
2018-02-20T16:04:44.777Z,3.94
2018-02-20T16:05:45.056Z,3.91
2018-02-20T16:06:44.739Z,3.87
2018-02-20T16:07:44.714Z,3.88
2018-02-20T16:08:44.699Z,3.73
2018-02-20T16:09:44.687Z,3.82
2018-02-20T16:10:44.654Z,3.90
2018-02-20T16:11:44.935Z,3.72
2018-02-20T16:12:44.724Z,3.66
2018-02-20T16:13:44.641Z,3.64
2018-02-20T16:14:44.583Z,3.67
2018-02-20T16:15:44.556Z,3.62
2018-02-20T16:16:44.569Z,3.60
2018-02-20T16:17:44.863Z,3.64
2018-02-20T16:18:44.906Z,3.54
2018-02-20T16:19:44.474Z,3.51
2018-02-20T16:20:44.578Z,3.52
2018-02-20T16:21:44.560Z,3.45
2018-02-20T16:22:44.503Z,3.46
2018-02-20T16:23:45.398Z,3.44
2018-02-20T16:24:44.831Z,3.36
2018-02-20T16:25:44.435Z,3.41
2018-02-20T16:26:44.351Z,3.32
2018-02-20T16:27:44.309Z,3.23
2018-02-20T16:28:44.440Z,3.20
2018-02-20T16:29:44.390Z,3.26
2018-02-20T16:30:44.250Z,3.26
2018-02-20T16:31:44.978Z,3.22
2018-02-20T16:32:45.028Z,3.18
2018-02-20T16:33:44.184Z,3.17
2018-02-20T16:34:44.168Z,3.08
2018-02-20T16:35:44.314Z,3.04
2018-02-20T16:36:44.120Z,2.93
2018-02-20T16:37:44.100Z,2.91
2018-02-20T16:38:44.374Z,2.89
2018-02-20T16:39:44.110Z,2.90
2018-02-20T16:40:44.085Z,2.78
2018-02-20T16:41:44.228Z,2.69
2018-02-20T16:42:43.991Z,2.57
2018-02-20T16:44:44.330Z,2.33
2018-02-20T16:45:43.926Z,2.35
2018-02-20T16:46:43.910Z,2.28
2018-02-20T16:47:43.879Z,2.21
2018-02-20T16:48:43.860Z,2.21
2018-02-20T16:49:43.919Z,2.06
2018-02-20T16:50:43.814Z,2.15
2018-02-20T16:51:44.104Z,2.14
2018-02-20T16:52:43.769Z,2.12
2018-02-20T16:53:43.763Z,2.14
2018-02-20T16:54:43.732Z,2.14
2018-02-20T16:55:43.705Z,2.14
2018-02-20T16:56:43.682Z,2.15
2018-02-20T16:57:43.739Z,2.18
2018-02-20T16:58:43.974Z,2.12
2018-02-20T16:59:43.622Z,2.15
2018-02-20T17:00:43.692Z,2.12
2018-02-20T17:01:43.568Z,2.22
2018-02-20T17:02:43.558Z,2.14
2018-02-20T17:03:43.551Z,2.19
2018-02-20T17:04:43.725Z,2.15
2018-02-20T17:05:43.815Z,2.04
2018-02-20T17:06:43.454Z,2.06
2018-02-20T17:07:43.626Z,2.03
2018-02-20T17:08:44.015Z,2.03
2018-02-20T17:09:44.092Z,1.95
2018-02-20T17:10:43.371Z,1.89
2018-02-20T17:11:44.249Z,1.87
2018-02-20T17:12:43.331Z,1.91
2018-02-20T17:13:43.456Z,1.84
2018-02-20T17:14:43.272Z,1.89
2018-02-20T17:15:43.251Z,1.82
2018-02-20T17:16:43.276Z,1.97
2018-02-20T17:17:43.520Z,1.85
2018-02-20T17:18:43.181Z,1.89
2018-02-20T17:19:43.466Z,1.91
2018-02-20T17:20:43.477Z,1.87
2018-02-20T17:21:43.149Z,2.03
2018-02-20T17:22:43.097Z,1.99
2018-02-20T17:23:43.366Z,2.06
2018-02-20T17:24:43.091Z,1.99
2018-02-20T17:25:43.106Z,1.99
2018-02-20T17:26:43.082Z,1.92
2018-02-20T17:27:43.241Z,1.93
2018-02-20T17:28:43.081Z,1.84
2018-02-20T17:29:43.021Z,1.89
2018-02-20T17:30:43.203Z,1.84
2018-02-20T17:31:42.944Z,1.84
2018-02-20T17:32:42.930Z,1.81
2018-02-20T17:33:42.832Z,1.84
2018-02-20T17:34:42.813Z,1.73
2018-02-20T17:35:43.100Z,1.74
2018-02-20T17:36:42.764Z,1.64
2018-02-20T17:37:42.743Z,1.60
2018-02-20T17:38:42.719Z,1.56
2018-02-20T17:39:42.747Z,1.56
2018-02-20T17:40:42.672Z,1.53
2018-02-20T17:41:42.963Z,1.48
2018-02-20T17:42:42.620Z,1.46
2018-02-20T17:43:42.662Z,1.52
2018-02-20T17:44:42.625Z,1.45
2018-02-20T17:45:42.552Z,1.41
2018-02-20T17:46:42.579Z,1.42
2018-02-20T17:47:42.523Z,1.52
2018-02-20T17:48:42.813Z,1.42
2018-02-20T17:49:42.656Z,1.44
2018-02-20T17:50:42.656Z,1.35
2018-02-20T17:51:42.413Z,1.28
2018-02-20T17:52:42.459Z,1.31
2018-02-20T17:53:42.369Z,1.28
2018-02-20T17:54:42.338Z,1.26
2018-02-20T17:55:42.639Z,1.34
2018-02-20T17:56:42.295Z,1.26
2018-02-20T17:57:42.374Z,1.24
2018-02-20T17:58:42.253Z,1.16
2018-02-20T17:59:42.530Z,1.24
2018-02-20T18:00:42.199Z,1.13
2018-02-20T18:01:42.175Z,1.18
2018-02-20T18:02:42.551Z,1.17
2018-02-20T18:03:42.148Z,1.31
2018-02-20T18:04:42.129Z,1.26
2018-02-20T18:05:42.086Z,1.31
2018-02-20T18:06:42.065Z,1.42
2018-02-20T18:07:42.069Z,1.36
2018-02-20T18:08:42.058Z,1.44
2018-02-20T18:09:42.287Z,1.44
2018-02-20T18:10:41.989Z,1.52
2018-02-20T18:11:41.941Z,1.44
2018-02-20T18:12:41.934Z,1.44
2018-02-20T18:13:42.258Z,1.42
2018-02-20T18:14:41.874Z,1.52
2018-02-20T18:15:41.893Z,1.46
2018-02-20T18:16:42.167Z,1.45
2018-02-20T18:17:41.800Z,1.59
2018-02-20T18:18:41.877Z,1.63
2018-02-20T18:19:41.749Z,1.63
2018-02-20T18:20:41.724Z,1.66
2018-02-20T18:21:41.709Z,1.77
2018-02-20T18:22:41.801Z,1.75
2018-02-20T18:23:41.963Z,1.77
2018-02-20T18:24:41.632Z,1.80
2018-02-20T18:25:41.612Z,1.84
2018-02-20T18:26:41.588Z,1.81
2018-02-20T18:27:41.647Z,1.84
2018-02-20T18:28:41.940Z,1.81
2018-02-20T18:29:41.522Z,1.81
2018-02-20T18:30:41.839Z,1.80
2018-02-20T18:31:41.464Z,1.78
2018-02-20T18:32:41.489Z,1.84
2018-02-20T18:33:41.420Z,1.84
2018-02-20T18:34:41.402Z,1.78
2018-02-20T18:35:41.373Z,1.81
2018-02-20T18:36:41.669Z,1.74
2018-02-20T18:37:41.324Z,1.67
2018-02-20T18:38:41.504Z,1.63
2018-02-20T18:39:41.280Z,1.57
2018-02-20T18:40:42.101Z,1.56
2018-02-20T18:42:41.504Z,1.46
2018-02-20T18:43:41.189Z,1.46
2018-02-20T18:44:41.163Z,1.36
2018-02-20T18:45:41.187Z,1.34
2018-02-20T18:46:41.217Z,1.31
2018-02-20T18:47:42.343Z,1.21
2018-02-20T18:48:41.246Z,1.17
2018-02-20T18:49:41.084Z,1.16
2018-02-20T18:50:41.018Z,1.13
2018-02-20T18:51:41.000Z,1.10
2018-02-20T18:52:41.075Z,1.03
2018-02-20T18:53:40.942Z,1.03
2018-02-20T18:54:40.994Z,1.06
2018-02-20T18:55:40.894Z,1.12
2018-02-20T18:56:40.891Z,1.10
2018-02-20T18:57:40.860Z,1.06
2018-02-20T18:58:40.823Z,1.03
2018-02-20T18:59:40.801Z,1.12
2018-02-20T19:00:41.075Z,1.05
2018-02-20T19:01:40.826Z,1.00
2018-02-20T19:02:40.728Z,1.06
2018-02-20T19:03:40.773Z,0.98
2018-02-20T19:04:40.687Z,0.99
2018-02-20T19:05:40.685Z,0.92
2018-02-20T19:06:40.936Z,0.88
2018-02-20T19:07:40.615Z,0.87
2018-02-20T19:09:40.627Z,0.74
2018-02-20T19:10:40.539Z,0.74
2018-02-20T19:11:40.572Z,0.69
2018-02-20T19:12:40.484Z,0.69
2018-02-20T19:13:40.771Z,0.59
2018-02-20T19:14:40.490Z,0.69
2018-02-20T19:15:40.902Z,0.62
2018-02-20T19:16:40.456Z,0.55
2018-02-20T19:17:40.561Z,0.51
2018-02-20T19:18:40.536Z,0.48
2018-02-20T19:19:40.598Z,0.45
2018-02-20T19:20:40.828Z,0.44
2018-02-20T19:21:40.293Z,0.36
2018-02-20T19:22:40.365Z,0.33
2018-02-20T19:23:40.219Z,0.32
2018-02-20T19:24:40.200Z,0.22
2018-02-20T19:25:40.166Z,0.22
2018-02-20T19:26:40.212Z,0.18
2018-02-20T19:27:40.414Z,0.09
2018-02-20T19:28:40.609Z,0.11
2018-02-20T19:29:40.069Z,-0.03
2018-02-20T19:30:40.043Z,-0.01
2018-02-20T19:31:40.016Z,0.04
2018-02-20T19:32:40.047Z,-0.01
2018-02-20T19:33:40.064Z,-0.11
2018-02-20T19:34:40.246Z,-0.04
2018-02-20T19:35:39.921Z,-0.03
2018-02-20T19:36:39.891Z,-0.13
2018-02-20T19:37:39.865Z,-0.11
2018-02-20T19:38:39.856Z,-0.21
2018-02-20T19:39:39.819Z,-0.25
2018-02-20T19:40:39.798Z,-0.28
2018-02-20T19:41:40.118Z,-0.31
2018-02-20T19:42:39.745Z,-0.34
2018-02-20T19:43:39.723Z,-0.25
2018-02-20T19:44:39.689Z,-0.29
2018-02-20T19:45:39.666Z,-0.28
2018-02-20T19:46:39.643Z,-0.38
2018-02-20T19:47:39.618Z,-0.29
2018-02-20T19:48:40.631Z,-0.27
2018-02-20T19:49:39.933Z,-0.32
2018-02-20T19:50:39.542Z,-0.32
2018-02-20T19:51:39.516Z,-0.27
2018-02-20T19:52:39.502Z,-0.34
2018-02-20T19:53:39.523Z,-0.38
2018-02-20T19:55:39.475Z,-0.38
2018-02-20T19:56:39.741Z,-0.46
2018-02-20T19:57:39.371Z,-0.49
2018-02-20T19:59:39.323Z,-0.45
2018-02-20T20:00:39.597Z,-0.49
2018-02-20T20:01:39.273Z,-0.55
2018-02-20T20:02:39.350Z,-0.60
2018-02-20T20:03:39.268Z,-0.52
2018-02-20T20:04:39.202Z,-0.64
2018-02-20T20:05:39.219Z,-0.57
2018-02-20T20:06:39.528Z,-0.60
2018-02-20T20:07:39.206Z,-0.67
2018-02-20T20:08:39.190Z,-0.61
2018-02-20T20:09:39.207Z,-0.73
2018-02-20T20:10:39.113Z,-0.75
2018-02-20T20:11:39.016Z,-0.75
2018-02-20T20:12:39.494Z,-0.79
2018-02-20T20:13:39.119Z,-0.73
2018-02-20T20:14:39.095Z,-0.85
2018-02-20T20:15:39.024Z,-0.86
2018-02-20T20:16:38.994Z,-0.82
2018-02-20T20:17:39.059Z,-0.86
2018-02-20T20:18:39.251Z,-1.00
2018-02-20T20:19:38.917Z,-0.95
2018-02-20T20:20:38.894Z,-1.04
2018-02-20T20:21:38.750Z,-1.08
2018-02-20T20:22:38.728Z,-1.05
2018-02-20T20:23:38.885Z,-1.04
2018-02-20T20:24:39.225Z,-1.10
2018-02-20T20:25:38.649Z,-1.11
2018-02-20T20:26:38.677Z,-1.16
2018-02-20T20:27:38.592Z,-1.22
2018-02-20T20:28:38.573Z,-1.23
2018-02-20T20:29:38.549Z,-1.28
2018-02-20T20:30:38.818Z,-1.19
2018-02-20T20:31:38.491Z,-1.18
2018-02-20T20:32:38.460Z,-1.15
2018-02-20T20:33:38.434Z,-1.11
2018-02-20T20:34:38.411Z,-1.05
2018-02-20T20:35:38.397Z,-1.05
2018-02-20T20:36:38.428Z,-1.05
2018-02-20T20:37:38.681Z,-1.03
2018-02-20T20:38:38.311Z,-1.05
2018-02-20T20:39:38.287Z,-1.10
2018-02-20T20:40:38.304Z,-1.04
2018-02-20T20:41:38.327Z,-1.05
2018-02-20T20:42:38.305Z,-1.07
2018-02-20T20:43:38.224Z,-1.11
2018-02-20T20:44:38.540Z,-1.15
2018-02-20T20:45:38.174Z,-1.18
2018-02-20T20:46:38.229Z,-1.19
2018-02-20T20:47:38.191Z,-1.16
2018-02-20T20:48:38.172Z,-1.18
2018-02-20T20:49:38.194Z,-1.21
2018-02-20T20:50:38.116Z,-1.25
2018-02-20T20:51:38.360Z,-1.25
2018-02-20T20:52:38.045Z,-1.31
2018-02-20T20:53:38.043Z,-1.22
2018-02-20T20:54:38.035Z,-1.28
2018-02-20T20:55:37.862Z,-1.37
2018-02-20T20:56:37.841Z,-1.37
2018-02-20T20:57:37.810Z,-1.33
2018-02-20T20:58:38.252Z,-1.26
2018-02-20T20:59:37.897Z,-1.26
2018-02-20T21:00:37.895Z,-1.29
2018-02-20T21:01:37.827Z,-1.36
2018-02-20T21:02:37.729Z,-1.37
2018-02-20T21:03:37.747Z,-1.36
2018-02-20T21:04:37.670Z,-1.51
2018-02-20T21:05:37.947Z,-1.52
2018-02-20T21:06:37.805Z,-1.55
2018-02-20T21:07:37.624Z,-1.58
2018-02-20T21:08:37.571Z,-1.61
2018-02-20T21:09:37.494Z,-1.52
2018-02-20T21:10:37.560Z,-1.59
2018-02-20T21:11:37.486Z,-1.67
2018-02-20T21:12:37.818Z,-1.73
2018-02-20T21:13:37.485Z,-1.67
2018-02-20T21:14:37.455Z,-1.67
2018-02-20T21:15:37.379Z,-1.76
2018-02-20T21:16:37.356Z,-1.75
2018-02-20T21:17:37.484Z,-1.70
2018-02-20T21:18:37.609Z,-1.76
2018-02-20T21:19:37.355Z,-1.75
2018-02-20T21:20:37.330Z,-1.85
2018-02-20T21:21:37.327Z,-1.75
2018-02-20T21:22:37.163Z,-1.76
2018-02-20T21:23:37.175Z,-1.76
2018-02-20T21:24:37.400Z,-1.80
2018-02-20T21:25:37.076Z,-1.73
2018-02-20T21:26:37.054Z,-1.79
2018-02-20T21:27:37.020Z,-1.88
2018-02-20T21:28:36.995Z,-1.82
2018-02-20T21:29:36.978Z,-1.79
2018-02-20T21:30:37.265Z,-1.88
2018-02-20T21:31:36.945Z,-1.90
2018-02-20T21:32:36.957Z,-1.88
2018-02-20T21:33:36.861Z,-1.90
2018-02-20T21:34:36.833Z,-1.94
2018-02-20T21:35:36.811Z,-2.03
2018-02-20T21:36:37.085Z,-2.00
2018-02-20T21:37:36.760Z,-2.01
2018-02-20T21:38:36.777Z,-1.98
2018-02-20T21:39:36.798Z,-2.04
2018-02-20T21:40:36.783Z,-2.04
2018-02-20T21:41:36.781Z,-1.97
2018-02-20T21:42:36.933Z,-1.98
2018-02-20T21:43:36.599Z,-1.94
2018-02-20T21:44:36.568Z,-1.88
2018-02-20T21:45:36.546Z,-1.90
2018-02-20T21:46:36.686Z,-1.88
2018-02-20T21:47:36.583Z,-1.97
2018-02-20T21:48:36.816Z,-1.83
2018-02-20T21:49:36.448Z,-1.93
2018-02-20T21:50:36.534Z,-2.08
2018-02-20T21:51:36.507Z,-1.97
2018-02-20T21:52:36.489Z,-1.97
2018-02-20T21:53:36.454Z,-2.00
2018-02-20T21:54:36.433Z,-1.97
2018-02-20T21:55:36.699Z,-2.03
2018-02-20T21:56:36.375Z,-2.12
2018-02-20T21:57:36.349Z,-2.11
2018-02-20T21:58:36.355Z,-2.14
2018-02-20T21:59:36.363Z,-2.16
2018-02-20T22:00:36.295Z,-2.06
2018-02-20T22:01:36.265Z,-2.11
2018-02-20T22:02:36.592Z,-2.03
2018-02-20T22:03:36.212Z,-2.08
2018-02-20T22:04:36.177Z,-2.08
2018-02-20T22:05:36.159Z,-2.15
2018-02-20T22:06:36.124Z,-2.06
2018-02-20T22:07:36.152Z,-2.04
2018-02-20T22:08:36.052Z,-2.14
2018-02-20T22:09:36.392Z,-2.09
2018-02-20T22:10:35.945Z,-2.12
2018-02-20T22:11:35.851Z,-2.12
2018-02-20T22:12:35.823Z,-2.06
2018-02-20T22:13:35.802Z,-2.11
2018-02-20T22:14:35.769Z,-2.12
2018-02-20T22:15:35.978Z,-2.06
2018-02-20T22:16:36.208Z,-2.12
2018-02-20T22:17:35.818Z,-2.08
2018-02-20T22:18:35.801Z,-2.22
2018-02-20T22:19:35.792Z,-2.21
2018-02-20T22:20:35.742Z,-2.16
2018-02-20T22:21:35.716Z,-2.21
2018-02-20T22:22:35.598Z,-2.11
2018-02-20T22:23:35.926Z,-2.08
2018-02-20T22:24:35.544Z,-2.11
2018-02-20T22:25:35.531Z,-2.24
2018-02-20T22:26:35.450Z,-2.19
2018-02-20T22:27:35.420Z,-2.15
2018-02-20T22:28:35.504Z,-2.19
2018-02-20T22:29:35.481Z,-2.26
2018-02-20T22:30:35.658Z,-2.26
2018-02-20T22:31:35.388Z,-2.29
2018-02-20T22:32:35.355Z,-2.27
2018-02-20T22:33:35.257Z,-2.27
2018-02-20T22:34:35.231Z,-2.16
2018-02-20T22:35:35.207Z,-2.15
2018-02-20T22:36:35.182Z,-2.15
2018-02-20T22:37:35.617Z,-2.09
2018-02-20T22:38:35.201Z,-2.12
2018-02-20T22:39:35.169Z,-2.26
2018-02-20T22:40:35.087Z,-2.21
2018-02-20T22:41:35.043Z,-2.21
2018-02-20T22:42:35.018Z,-2.21
2018-02-20T22:43:35.292Z,-2.26
2018-02-20T22:44:34.971Z,-2.35
2018-02-20T22:45:34.938Z,-2.41
2018-02-20T22:46:34.920Z,-2.40
2018-02-20T22:47:34.912Z,-2.38
2018-02-20T22:48:34.857Z,-2.35
2018-02-20T22:49:35.129Z,-2.33
2018-02-20T22:50:34.849Z,-2.30
2018-02-20T22:51:34.844Z,-2.30
2018-02-20T22:52:34.789Z,-2.22
2018-02-20T22:53:34.739Z,-2.15
2018-02-20T22:54:34.694Z,-2.27
2018-02-20T22:55:34.965Z,-2.14
2018-02-20T22:56:34.643Z,-2.19
2018-02-20T22:57:34.662Z,-2.21
2018-02-20T22:58:34.584Z,-2.33
2018-02-20T22:59:34.556Z,-2.24
2018-02-20T23:00:34.530Z,-2.27
2018-02-20T23:01:34.804Z,-2.37
2018-02-20T23:02:34.565Z,-2.46
2018-02-20T23:03:34.452Z,-2.43
2018-02-20T23:04:34.428Z,-2.52
2018-02-20T23:05:34.393Z,-2.46
2018-02-20T23:06:34.368Z,-2.43
2018-02-20T23:07:34.648Z,-2.46
2018-02-20T23:08:34.312Z,-2.56
2018-02-20T23:09:34.292Z,-2.49
2018-02-20T23:10:34.313Z,-2.46
2018-02-20T23:11:34.230Z,-2.49
2018-02-20T23:12:34.203Z,-2.54
2018-02-20T23:13:34.579Z,-2.58
2018-02-20T23:14:34.148Z,-2.54
2018-02-20T23:15:34.312Z,-2.58
2018-02-20T23:16:34.114Z,-2.69
2018-02-20T23:17:34.208Z,-2.64
2018-02-20T23:18:34.161Z,-2.61
2018-02-20T23:19:34.134Z,-2.61
2018-02-20T23:20:34.427Z,-2.51
2018-02-20T23:21:34.005Z,-2.49
2018-02-20T23:22:33.978Z,-2.46
2018-02-20T23:23:33.997Z,-2.45
2018-02-20T23:24:33.921Z,-2.38
2018-02-20T23:25:33.943Z,-2.27
2018-02-20T23:26:33.821Z,-2.21
2018-02-20T23:27:34.094Z,-2.22
2018-02-20T23:28:33.767Z,-2.22
2018-02-20T23:29:33.868Z,-2.21
2018-02-20T23:30:33.711Z,-2.27
2018-02-20T23:31:33.690Z,-2.22
2018-02-20T23:32:33.702Z,-2.15
2018-02-20T23:33:33.726Z,-2.16
2018-02-20T23:34:34.009Z,-2.08